Historyczne dane pomiarowe

Dodano dane terminowe – wersja testowa.

Dane z okresu 1951-2019

Wersja bazy: 1.34 [2019-03-16, lista zmian], aktualizacja planowana na 2019-04-15

Dane meteo z obszaru Polski uzyskane na podstawie danych udostępnionych przez Instytut Meteorologii i Gospodarki Wodnej – Państwowy Instytut Badawczy.

 

Wybierz Datę:    

       

TemperaturaWilgotnośćWiatrCiśnienieOpadyŚniegCzas trwania zjawisk
 Stacja t tx tn tng RH VA  wxwx mslp ppp RRR   cm mm wxwxwxwxwxwxwx
1987-08-14 10.8 21.0 1.8- 73.0- 4.3 0.3---- 0.0------------
1987-08-13 9.0 16.3 2.4- 72.5- 4.3 0.7---- 0.0------------
1987-08-12 8.4 14.3 2.2- 77.3- 2.3 0.0---- 0.0------------
1987-08-11 10.6 15.4 7.8- 73.0- 6.0 0.7---- 0.7------------
1987-08-10 12.4 17.6 10.6- 87.0- 8.0 0.0---- 6.8------------
1987-08-09 12.0 21.6 3.0- 70.0- 2.0 0.3---- 0.2------------
1987-08-08 11.8 18.2 5.9- 65.0- 3.0 0.0---- 0.0------------
1987-08-07 7.5 14.9 0.9- 74.3- 3.3 1.3---- 0.1------------
1987-08-06 9.5 14.3 7.1- 81.8- 5.7 0.0---- 1.8------------
1987-08-05 11.0 14.9 7.8- 75.8- 8.0 0.0---- 4.5------------
1987-08-04 11.3 16.1 8.2- 86.5- 8.0 1.0---- 5.1------------
1987-08-03 13.6 19.6 8.9- 88.3- 6.0 1.0---- 0.0------------
1987-08-02 14.2 17.4 11.4- 66.5- 4.3 1.3---- 0.3------------
1987-08-01 13.7 20.4 7.0- 75.3- 8.0 1.3---- 0.7------------
1987-07-31 14.4 19.1 10.0- 75.5- 8.0 1.7---- 6.2------------
1987-07-30 15.1 21.5 8.8- 70.8- 0.3 0.7---- 0.0------------
1987-07-29 11.4 16.9 7.1- 71.8- 2.7 0.0---- 0.0------------
1987-07-28 11.5 13.7 8.9- 77.0- 7.7 0.7---- 2.2------------
1987-07-27 10.5 17.1 7.2- 65.0- 4.0 1.0---- 0.4------------
1987-07-26 13.6 20.6 11.0- 88.8- 8.0 2.3---- 13.1------------
1987-07-25 18.2 22.9 15.0- 71.8- 5.3 0.0---- 0.0------------
1987-07-24 20.0 27.8 14.8- 71.8- 5.0 0.7---- 7.0------------
1987-07-23 20.4 27.5 13.6- 67.0- 0.7 0.0---- 0.2------------
1987-07-22 19.4 26.9 13.0- 56.8- 4.3 0.0---- 5.5------------
1987-07-21 21.0 28.6 13.0- 62.8- 1.7 0.7---- 0.0------------
1987-07-20 19.3 26.1 15.6- 59.5- 3.3 0.7---- 0.0------------
1987-07-19 21.8 30.0 14.2- 69.5- 3.0 0.7---- 0.8------------
1987-07-18 20.7 28.1 13.8- 69.5- 1.3 0.0---- 0.0------------
1987-07-17 19.7 27.5 12.2- 69.5- 3.7 0.7---- 0.0------------
1987-07-16 17.2 26.3 9.0- 71.5- 3.3 0.0---- 0.0------------
1987-07-15 14.3 23.3 5.8- 70.0- 0.0 0.0---- 0.0------------
1987-07-14 15.5 20.7 9.6- 64.0- 1.0 1.7---- 0.0------------
1987-07-13 17.4 24.8 13.4- 73.0- 7.3 1.0---- 0.0------------
1987-07-12 17.0 27.4 7.2- 66.5- 3.0 0.7---- 7.4------------
1987-07-11 13.5 23.3 4.9- 63.5- 2.0 0.7---- 0.0------------
1987-07-10 13.5 18.7 9.8- 62.5- 1.7 2.3---- 0.0------------
1987-07-09 16.6 25.2 12.4- 73.8- 4.3 1.3---- 2.7------------
1987-07-08 16.8 27.3 7.1- 56.0- 0.0 0.0---- 0.0------------
1987-07-07 14.4 24.7 5.2- 61.0- 0.0 0.0---- 0.0------------
1987-07-06 14.2 21.4 6.8- 66.0- 0.0 1.3---- 0.0------------
1987-07-05 13.1 18.7 11.3- 79.0- 7.3 1.3---- 2.4------------
1987-07-04 17.2 21.7 12.8- 68.8- 4.0 0.0---- 1.0------------
1987-07-03 16.7 21.4 14.2- 76.5- 8.0 1.7---- 0.0------------
1987-07-02 18.9 26.8 14.8- 87.0- 6.0 1.3---- 0.0------------
1987-07-01 21.1 28.1 14.0- 69.3- 1.0 0.0---- 0.0------------
1987-06-30 20.5 29.2 11.9- 72.0- 0.0 0.0---- 0.0------------
1987-06-29 19.1 25.4 13.0- 73.3- 2.3 0.0---- 0.0------------
1987-06-28 17.3 23.8 12.4- 70.8- 3.7 3.0---- 0.1------------
1987-06-27 16.5 23.8 12.8- 77.0- 5.3 1.0---- 4.3------------
1987-06-26 12.8 21.4 3.7- 69.3- 0.3 0.7---- 0.3------------
1987-06-25 13.2 17.2 10.4- 71.8- 3.3 1.0---- 0.0------------
1987-06-24 13.5 18.1 9.8- 77.5- 4.3 0.0---- 1.3------------
1987-06-23 14.2 18.5 11.3- 75.5- 8.0 1.7---- 0.5------------
1987-06-22 15.3 21.7 10.9- 74.0- 7.3 1.0---- 0.0------------
1987-06-21 15.3 22.1 7.5- 71.3- 2.0 1.0---- 0.0------------
1987-06-20 13.3 21.4 4.1- 66.5- 4.0 0.3---- 0.0------------
1987-06-19 11.1 15.9 7.1- 77.3- 6.3 0.3---- 0.8------------
1987-06-18 8.8 15.8 3.8- 87.5- 5.0 1.3---- 2.5------------
1987-06-17 10.2 14.0 8.8- 82.0- 6.7 1.3---- 0.1------------
1987-06-16 15.5 19.6 10.8- 74.8- 7.3 2.0---- 2.8------------
396.0 ms

 

Źródłem pochodzenia danych jest Instytut Meteorologii i Gospodarki Wodnej – Państwowy Instytut Badawczy. Dane Instytutu Meteorologii i Gospodarki Wodnej – Państwowego Instytutu Badawczego zostały przetworzone.

Dane źródłowe można odnaleźć na stronie https://dane.imgw.pl